Time;durP1;ratioP1;P1;durP2;ratioP2;P2;SDS_P1;SDS_P2;PMS_P1;PMS_P2;Temp;Humidity;BMP_temperature;BMP_pressure;BME280_temperature;BME280_humidity;BME280_pressure;Samples;Min_cycle;Max_cycle;Signal;HPM_P1;HPM_P2
2021/04/23 00:00:43;;;;;;;1.35;0.80;;;3.30;99.90;;;;;;5022204;28;20041;-78
2021/04/23 00:03:27;;;;;;;4.93;1.73;;;3.30;99.90;;;;;;5017203;28;20143;-78
2021/04/23 00:06:17;;;;;;;1.35;0.88;;;3.30;99.90;;;;;;5013132;28;20054;-78
2021/04/23 00:08:47;;;;;;;2.17;0.80;;;3.30;99.90;;;;;;5016585;28;20057;-78
2021/04/23 00:11:17;;;;;;;1.27;0.90;;;3.30;99.90;;;;;;5037664;28;20433;-78
2021/04/23 00:13:44;;;;;;;7.72;1.48;;;3.20;99.90;;;;;;5019705;28;20065;-78
2021/04/23 00:16:11;;;;;;;1.67;0.77;;;3.20;99.90;;;;;;5020597;28;20545;-78
2021/04/23 00:18:39;;;;;;;1.13;0.70;;;3.20;99.90;;;;;;5019569;28;20435;-78
2021/04/23 00:21:10;;;;;;;2.05;1.00;;;3.20;99.90;;;;;;5019999;28;20034;-78
2021/04/23 00:23:38;;;;;;;3.28;0.98;;;3.20;99.90;;;;;;5034063;28;20445;-78
2021/04/23 00:26:06;;;;;;;1.02;0.68;;;3.20;99.90;;;;;;5019280;28;20048;-78
2021/04/23 00:28:35;;;;;;;1.40;0.77;;;3.20;99.90;;;;;;5021416;28;20099;-78
2021/04/23 00:31:03;;;;;;;2.33;1.00;;;3.20;99.90;;;;;;5021300;28;20042;-78
2021/04/23 00:33:30;;;;;;;1.67;0.88;;;3.20;99.90;;;;;;5022309;28;20218;-77
2021/04/23 00:35:57;;;;;;;1.70;1.13;;;3.20;99.90;;;;;;5003649;28;20056;-78
2021/04/23 00:38:27;;;;;;;1.75;0.98;;;3.20;99.90;;;;;;5024717;28;20052;-77
2021/04/23 00:41:14;;;;;;;1.67;1.08;;;3.20;99.90;;;;;;5022624;28;20665;-78
2021/04/23 00:43:46;;;;;;;1.52;0.75;;;3.20;99.90;;;;;;5019708;28;20073;-78
2021/04/23 00:46:32;;;;;;;;;;;3.20;99.90;;;;;;5022452;28;20099;-78
2021/04/23 00:49:00;;;;;;;3.53;0.60;;;3.20;99.90;;;;;;5018806;28;20347;-78
2021/04/23 00:51:44;;;;;;;2.70;1.10;;;3.30;99.90;;;;;;5027480;28;20511;-78
2021/04/23 00:54:14;;;;;;;2.08;0.95;;;3.40;99.90;;;;;;5018738;28;20131;-78
2021/04/23 00:56:41;;;;;;;2.28;1.00;;;3.30;99.90;;;;;;5015218;28;20420;-78
2021/04/23 00:59:11;;;;;;;3.35;1.02;;;3.40;99.90;;;;;;5020147;28;20048;-78
2021/04/23 01:01:43;;;;;;;;;;;3.40;99.90;;;;;;5018466;28;20219;-78
2021/04/23 01:04:13;;;;;;;2.30;0.90;;;3.40;99.90;;;;;;5034418;28;19926;-78
2021/04/23 01:06:41;;;;;;;4.22;1.35;;;3.40;99.90;;;;;;5035773;28;20042;-78
2021/04/23 01:09:19;;;;;;;2.78;0.98;;;3.40;99.90;;;;;;5020825;28;20133;-78
2021/04/23 01:12:05;;;;;;;1.48;0.77;;;3.40;99.90;;;;;;5019471;28;20099;-77
2021/04/23 01:14:33;;;;;;;4.75;1.00;;;3.50;99.90;;;;;;5033601;28;20042;-77
2021/04/23 01:17:00;;;;;;;1.65;0.75;;;3.50;99.90;;;;;;5019963;28;20048;-77
2021/04/23 01:19:27;;;;;;;1.48;0.95;;;3.50;99.90;;;;;;5019718;28;20042;-78
2021/04/23 01:21:55;;;;;;;3.03;1.08;;;3.50;99.90;;;;;;5013270;28;20525;-77
2021/04/23 01:24:22;;;;;;;2.70;0.68;;;3.50;99.90;;;;;;5021345;28;20053;-77
2021/04/23 01:26:52;;;;;;;1.98;0.63;;;3.60;99.90;;;;;;5019871;28;20849;-77
2021/04/23 01:29:20;;;;;;;1.48;0.57;;;3.60;99.90;;;;;;5004123;28;20037;-78
2021/04/23 01:31:50;;;;;;;2.80;0.60;;;3.70;99.90;;;;;;5018319;28;20049;-77
2021/04/23 01:34:29;;;;;;;2.15;0.68;;;3.80;99.90;;;;;;5022016;28;20037;-77
2021/04/23 01:36:59;;;;;;;6.70;1.17;;;3.80;99.90;;;;;;5032043;28;20423;-78
2021/04/23 01:39:29;;;;;;;2.05;1.05;;;3.80;99.90;;;;;;5020342;28;20056;-77
2021/04/23 01:41:56;;;;;;;6.30;1.02;;;3.80;99.90;;;;;;5014641;28;20049;-78
2021/04/23 01:44:24;;;;;;;4.82;0.45;;;3.80;99.90;;;;;;5022182;28;20606;-77
2021/04/23 01:46:51;;;;;;;1.30;0.73;;;3.90;99.90;;;;;;5022817;28;20099;-77
2021/04/23 01:49:20;;;;;;;1.48;0.85;;;3.90;99.90;;;;;;5024623;28;20215;-77
2021/04/23 01:51:54;;;;;;;2.22;0.50;;;3.80;99.90;;;;;;5036229;28;20052;-77
2021/04/23 01:54:21;;;;;;;1.83;0.60;;;3.80;99.90;;;;;;5042155;28;20044;-78
2021/04/23 01:56:48;;;;;;;4.90;0.60;;;3.90;99.90;;;;;;5043785;28;20045;-77
2021/04/23 01:59:15;;;;;;;2.45;1.15;;;3.80;99.90;;;;;;5059900;28;20128;-78
2021/04/23 02:01:42;;;;;;;1.02;0.60;;;3.90;99.90;;;;;;5037799;28;20549;-78
2021/04/23 02:04:10;;;;;;;10.50;1.33;;;3.80;99.90;;;;;;5056426;28;20045;-78
2021/04/23 02:06:38;;;;;;;3.28;0.70;;;3.80;99.90;;;;;;5044037;28;20045;-77
2021/04/23 02:09:09;;;;;;;3.63;0.75;;;3.80;99.90;;;;;;5043194;28;20462;-77
2021/04/23 02:11:37;;;;;;;6.30;1.38;;;3.80;99.90;;;;;;5043009;28;20052;-78
2021/04/23 02:14:04;;;;;;;1.80;0.60;;;3.80;99.90;;;;;;5040561;28;20048;-77
2021/04/23 02:16:31;;;;;;;3.22;0.93;;;3.80;99.90;;;;;;5041566;28;20042;-77
2021/04/23 02:18:59;;;;;;;1.63;0.20;;;3.80;99.90;;;;;;5044771;28;20102;-77
2021/04/23 02:21:26;;;;;;;1.65;0.73;;;3.70;99.90;;;;;;5036875;28;20116;-77
2021/04/23 02:23:52;;;;;;;1.85;0.40;;;3.70;99.90;;;;;;5043638;28;20295;-78
2021/04/23 02:26:22;;;;;;;2.10;0.50;;;3.70;99.90;;;;;;5049644;28;20041;-78
2021/04/23 02:28:53;;;;;;;4.72;0.55;;;3.70;99.90;;;;;;5049051;28;20506;-79
2021/04/23 02:31:23;;;;;;;4.65;0.85;;;3.60;99.90;;;;;;5039784;28;20118;-79
2021/04/23 02:33:53;;;;;;;4.32;0.50;;;3.60;99.90;;;;;;5045723;28;20789;-79
2021/04/23 02:36:20;;;;;;;2.72;0.93;;;3.60;99.90;;;;;;5045458;28;20170;-79
2021/04/23 02:38:47;;;;;;;1.92;0.65;;;3.60;99.90;;;;;;5046712;28;20049;-79
2021/04/23 02:41:16;;;;;;;2.00;0.93;;;3.60;99.90;;;;;;5030026;28;20049;-79
2021/04/23 02:43:48;;;;;;;2.25;0.80;;;3.60;99.90;;;;;;5029333;28;20047;-79
2021/04/23 02:46:15;;;;;;;2.05;0.70;;;3.60;99.90;;;;;;5027975;28;20069;-79
2021/04/23 02:48:44;;;;;;;2.95;0.90;;;3.50;99.90;;;;;;5044836;28;20049;-79
2021/04/23 02:51:37;;;;;;;5.80;1.00;;;3.60;99.90;;;;;;5044414;28;20390;-79
2021/04/23 02:54:04;;;;;;;;;;;3.60;99.90;;;;;;5041497;28;20152;-78
2021/04/23 02:56:31;;;;;;;2.25;0.60;;;3.60;99.90;;;;;;5044404;28;20222;-79
2021/04/23 02:58:58;;;;;;;3.47;0.60;;;3.50;99.90;;;;;;5044216;28;20048;-78
2021/04/23 03:01:31;;;;;;;4.57;0.80;;;3.50;99.90;;;;;;5044911;28;20502;-79
2021/04/23 03:03:58;;;;;;;3.42;0.80;;;3.60;99.90;;;;;;5057435;28;20676;-79
2021/04/23 03:06:25;;;;;;;2.53;0.57;;;3.60;99.90;;;;;;5043178;28;20703;-78
2021/04/23 03:08:52;;;;;;;3.35;1.63;;;3.50;99.90;;;;;;5029748;28;20033;-79
2021/04/23 03:11:22;;;;;;;2.63;1.10;;;3.50;99.90;;;;;;5044112;28;20037;-80
2021/04/23 03:13:55;;;;;;;2.40;0.57;;;3.50;99.90;;;;;;5060705;28;20132;-78
2021/04/23 03:16:24;;;;;;;1.77;0.45;;;3.50;99.90;;;;;;5043799;28;20457;-79
2021/04/23 03:18:52;;;;;;;1.17;0.30;;;3.50;99.90;;;;;;5045652;28;20087;-79
2021/04/23 03:21:22;;;;;;;2.25;0.35;;;3.40;99.90;;;;;;5044847;28;20061;-79
2021/04/23 03:23:49;;;;;;;5.25;0.80;;;3.40;99.90;;;;;;5027936;28;20769;-79
2021/04/23 03:26:17;;;;;;;1.63;1.00;;;3.50;99.90;;;;;;5029631;28;20063;-80
2021/04/23 03:28:43;;;;;;;3.03;0.85;;;3.40;99.90;;;;;;5046157;28;20061;-80
2021/04/23 03:31:13;;;;;;;3.20;0.60;;;3.40;99.90;;;;;;5046112;28;20044;-79
2021/04/23 03:33:40;;;;;;;2.42;0.57;;;3.40;99.90;;;;;;5045200;28;20049;-78
2021/04/23 03:36:09;;;;;;;1.70;1.02;;;3.40;99.90;;;;;;5043286;28;20131;-79
2021/04/23 03:38:38;;;;;;;4.10;1.02;;;3.40;99.90;;;;;;5042965;28;20449;-80
2021/04/23 03:41:10;;;;;;;2.83;0.63;;;3.30;99.90;;;;;;5041382;28;20085;-79
2021/04/23 03:43:38;;;;;;;5.97;2.20;;;3.30;99.90;;;;;;5028471;28;20051;-79
2021/04/23 03:46:05;;;;;;;6.10;0.98;;;3.40;99.90;;;;;;5045514;28;20045;-80
2021/04/23 03:48:33;;;;;;;6.53;0.93;;;3.30;99.90;;;;;;5045740;28;20135;-79
2021/04/23 03:51:03;;;;;;;3.67;0.52;;;3.30;99.90;;;;;;5031801;28;20065;-78
2021/04/23 03:53:32;;;;;;;3.55;0.57;;;3.30;99.90;;;;;;5023948;28;20136;-79
2021/04/23 03:55:59;;;;;;;1.57;0.40;;;3.30;99.90;;;;;;5008077;28;20116;-78
2021/04/23 03:58:26;;;;;;;3.72;0.57;;;3.30;99.90;;;;;;5024078;28;20275;-79
2021/04/23 04:00:58;;;;;;;4.03;0.77;;;3.30;99.90;;;;;;5006415;28;20049;-79
2021/04/23 04:03:26;;;;;;;3.10;1.30;;;3.30;99.90;;;;;;5022264;28;20196;-78
2021/04/23 04:05:54;;;;;;;2.70;0.70;;;3.30;99.90;;;;;;5005897;28;20067;-80
2021/04/23 04:08:20;;;;;;;2.13;0.70;;;3.30;99.90;;;;;;5024113;28;20049;-80
2021/04/23 04:10:48;;;;;;;1.58;0.40;;;3.20;99.90;;;;;;5024654;28;20053;-79
2021/04/23 04:13:15;;;;;;;3.03;0.60;;;3.20;99.90;;;;;;5023677;28;20049;-78
2021/04/23 04:15:43;;;;;;;0.73;0.50;;;3.20;99.90;;;;;;5010011;28;20045;-78
2021/04/23 04:18:11;;;;;;;1.98;0.40;;;3.20;99.90;;;;;;5007382;28;20057;-79
2021/04/23 04:20:43;;;;;;;4.43;0.60;;;3.30;99.90;;;;;;5023161;28;20529;-79
2021/04/23 04:23:28;;;;;;;1.15;0.28;;;3.20;99.90;;;;;;5024426;28;20129;-82
2021/04/23 04:25:57;;;;;;;2.65;0.65;;;3.20;99.90;;;;;;5005387;28;20145;-80
2021/04/23 04:28:28;;;;;;;10.15;1.83;;;3.20;99.90;;;;;;5008759;28;20041;-78
2021/04/23 04:30:55;;;;;;;2.05;0.40;;;3.20;99.90;;;;;;5024096;28;20049;-79
2021/04/23 04:33:43;;;;;;;2.28;0.52;;;3.20;99.90;;;;;;5025612;28;20053;-79
2021/04/23 04:36:09;;;;;;;1.95;0.88;;;3.20;99.90;;;;;;5024057;28;20107;-79
2021/04/23 04:38:36;;;;;;;3.08;0.57;;;3.20;99.90;;;;;;5023310;28;20091;-79
2021/04/23 04:41:04;;;;;;;6.53;1.13;;;3.20;99.90;;;;;;5024486;28;20050;-79
2021/04/23 04:43:31;;;;;;;3.25;0.57;;;3.20;99.90;;;;;;5025106;28;20053;-79
2021/04/23 04:45:57;;;;;;;9.25;1.85;;;3.20;99.90;;;;;;5021256;28;20046;-78
2021/04/23 04:48:24;;;;;;;3.90;0.57;;;3.20;99.90;;;;;;5025281;28;20052;-78
2021/04/23 04:50:54;;;;;;;2.92;0.52;;;3.20;99.90;;;;;;5043197;28;20064;-78
2021/04/23 04:53:21;;;;;;;2.35;0.50;;;3.20;99.90;;;;;;5062864;28;20143;-79
2021/04/23 04:55:51;;;;;;;4.78;1.20;;;3.20;99.90;;;;;;5027505;28;20057;-78
2021/04/23 04:58:37;;;;;;;6.57;0.80;;;3.20;99.90;;;;;;5049298;28;21663;-79
2021/04/23 05:01:06;;;;;;;3.13;0.45;;;3.20;99.90;;;;;;5045660;28;20557;-78
2021/04/23 05:03:33;;;;;;;4.55;0.82;;;3.20;99.90;;;;;;5063830;28;20067;-79
2021/04/23 05:06:00;;;;;;;3.92;0.43;;;3.30;99.90;;;;;;5042519;28;20044;-78
2021/04/23 05:08:27;;;;;;;1.35;0.88;;;3.20;99.90;;;;;;5030322;28;20066;-79
2021/04/23 05:10:53;;;;;;;0.80;0.47;;;3.20;99.90;;;;;;5044455;28;20180;-79
2021/04/23 05:13:20;;;;;;;1.95;0.60;;;3.20;99.90;;;;;;5060243;28;20100;-79
2021/04/23 05:15:47;;;;;;;1.38;0.80;;;3.30;99.90;;;;;;5046895;28;20132;-78
2021/04/23 05:18:13;;;;;;;3.05;0.73;;;3.30;99.90;;;;;;5049089;28;20098;-79
2021/04/23 05:20:40;;;;;;;3.38;0.77;;;3.30;99.90;;;;;;5031466;28;20504;-79
2021/04/23 05:23:07;;;;;;;3.67;0.57;;;3.30;99.90;;;;;;5050568;28;20488;-78
2021/04/23 05:25:35;;;;;;;2.50;0.40;;;3.30;99.90;;;;;;5067721;28;20500;-79
2021/04/23 05:28:03;;;;;;;5.32;0.45;;;3.30;99.90;;;;;;5048056;28;20041;-78
2021/04/23 05:30:32;;;;;;;3.28;0.40;;;3.30;99.90;;;;;;5045058;28;20099;-78
2021/04/23 05:33:01;;;;;;;2.63;1.05;;;3.30;99.90;;;;;;5054294;28;20369;-80
2021/04/23 05:35:29;;;;;;;2.33;1.13;;;3.30;99.90;;;;;;5051105;28;20493;-80
2021/04/23 05:37:58;;;;;;;1.15;0.50;;;3.30;99.90;;;;;;5047679;28;20128;-80
2021/04/23 05:40:51;;;;;;;3.63;0.50;;;3.30;99.90;;;;;;5063857;28;20120;-79
2021/04/23 05:43:18;;;;;;;3.08;0.77;;;3.30;99.90;;;;;;5050935;28;20098;-79
2021/04/23 05:45:47;;;;;;;5.97;0.50;;;3.30;99.90;;;;;;5051422;28;20048;-80
2021/04/23 05:48:15;;;;;;;3.40;1.00;;;3.40;99.90;;;;;;5065554;28;20587;-79
2021/04/23 05:50:43;;;;;;;4.63;1.13;;;3.30;99.90;;;;;;5049012;28;20136;-80
2021/04/23 05:53:10;;;;;;;3.70;0.95;;;3.30;99.90;;;;;;5048148;28;20099;-80
2021/04/23 05:55:37;;;;;;;3.08;0.77;;;3.40;99.90;;;;;;5065925;28;20033;-80
2021/04/23 05:58:06;;;;;;;2.10;0.52;;;3.40;99.90;;;;;;5048625;28;20041;-80
2021/04/23 06:00:35;;;;;;;2.17;0.55;;;3.40;99.90;;;;;;5033028;28;20037;-80
2021/04/23 06:03:04;;;;;;;5.80;1.52;;;3.40;99.90;;;;;;5052684;28;20152;-80
2021/04/23 06:05:32;;;;;;;2.47;0.43;;;3.40;99.90;;;;;;5048387;28;20464;-80
2021/04/23 06:08:05;;;;;;;1.90;0.60;;;3.40;99.90;;;;;;5049167;28;20461;-79
2021/04/23 06:10:32;;;;;;;6.95;0.80;;;3.30;99.90;;;;;;5048982;28;20049;-80
2021/04/23 06:13:00;;;;;;;5.70;0.50;;;3.30;99.90;;;;;;5034746;28;20049;-79
2021/04/23 06:15:27;;;;;;;4.43;0.45;;;3.40;99.90;;;;;;5035485;28;20075;-80
2021/04/23 06:17:55;;;;;;;5.95;1.05;;;3.30;99.90;;;;;;5051277;28;20461;-80
2021/04/23 06:20:26;;;;;;;2.97;0.63;;;3.30;99.90;;;;;;5049838;28;20120;-81
2021/04/23 06:22:53;;;;;;;1.08;0.45;;;3.30;99.90;;;;;;5037619;28;20061;-80
2021/04/23 06:25:21;;;;;;;1.98;0.45;;;3.40;99.90;;;;;;5036299;28;20053;-81
2021/04/23 06:27:50;;;;;;;6.78;0.47;;;3.40;99.90;;;;;;5046153;28;20156;-81
2021/04/23 06:30:21;;;;;;;0.80;0.47;;;3.40;99.90;;;;;;5044103;28;20044;-81
2021/04/23 06:32:48;;;;;;;7.10;0.60;;;3.40;99.90;;;;;;5069143;28;20124;-80
2021/04/23 06:35:21;;;;;;;4.05;0.85;;;3.30;99.90;;;;;;5047962;28;20037;-80
2021/04/23 06:37:48;;;;;;;2.25;0.63;;;3.30;99.90;;;;;;5051790;28;20132;-80
2021/04/23 06:40:16;;;;;;;4.00;0.93;;;3.30;99.90;;;;;;5050009;28;20300;-79
2021/04/23 06:42:43;;;;;;;3.20;0.65;;;3.30;99.90;;;;;;5034721;28;20370;-80
2021/04/23 06:45:14;;;;;;;4.72;0.85;;;3.40;99.90;;;;;;5051891;28;20341;-81
2021/04/23 06:47:42;;;;;;;3.10;0.65;;;3.30;99.90;;;;;;5031705;28;20047;-80
2021/04/23 06:50:11;;;;;;;1.25;0.32;;;3.40;99.90;;;;;;5034387;28;20101;-82
2021/04/23 06:52:38;;;;;;;5.43;0.70;;;3.40;99.90;;;;;;5070384;28;20110;-80
2021/04/23 06:55:07;;;;;;;1.52;0.55;;;3.40;99.90;;;;;;5038754;28;20047;-80
2021/04/23 06:57:34;;;;;;;2.47;0.93;;;3.40;99.90;;;;;;5053630;28;20087;-81
2021/04/23 07:00:13;;;;;;;2.65;0.50;;;3.50;99.90;;;;;;5053220;28;20056;-81
2021/04/23 07:02:40;;;;;;;5.72;0.80;;;3.40;99.90;;;;;;5035683;28;20143;-81
2021/04/23 07:05:08;;;;;;;2.25;1.00;;;3.40;99.90;;;;;;5041152;28;20100;-81
2021/04/23 07:07:34;;;;;;;4.60;0.80;;;3.40;99.90;;;;;;5055476;28;20062;-83
2021/04/23 07:10:02;;;;;;;3.63;0.30;;;3.50;99.90;;;;;;5051790;28;20051;-80
2021/04/23 07:12:28;;;;;;;3.50;0.77;;;3.50;99.90;;;;;;5052658;28;20045;-81
2021/04/23 07:14:55;;;;;;;5.30;0.50;;;3.50;99.90;;;;;;5039289;28;20153;-81
2021/04/23 07:17:21;;;;;;;4.20;0.60;;;3.60;99.90;;;;;;5054774;28;20498;-81
2021/04/23 07:19:48;;;;;;;6.57;0.52;;;3.50;99.90;;;;;;5038763;28;20045;-82
2021/04/23 07:22:15;;;;;;;2.30;0.63;;;3.60;99.90;;;;;;5054402;28;20066;-80
2021/04/23 07:24:43;;;;;;;2.05;0.60;;;3.60;99.90;;;;;;5039818;28;20040;-81
2021/04/23 07:27:10;;;;;;;1.63;0.40;;;3.70;99.90;;;;;;5056361;28;20099;-82
2021/04/23 07:29:44;;;;;;;7.07;1.20;;;3.70;99.90;;;;;;5043322;28;20036;-81
2021/04/23 07:32:10;;;;;;;3.20;0.25;;;3.60;99.90;;;;;;5050932;28;20107;-82
2021/04/23 07:34:37;;;;;;;1.95;0.30;;;3.60;99.90;;;;;;5052945;28;20067;-81
2021/04/23 07:37:04;;;;;;;2.40;0.55;;;3.50;99.90;;;;;;5036650;28;20121;-81
2021/04/23 07:39:32;;;;;;;0.22;0.20;;;3.50;99.90;;;;;;5067230;28;20044;-81
2021/04/23 07:42:00;;;;;;;0.77;0.43;;;3.70;99.90;;;;;;5053967;28;20056;-81
2021/04/23 07:44:27;;;;;;;2.65;0.52;;;3.80;99.90;;;;;;5069440;28;20524;-81
2021/04/23 07:46:54;;;;;;;1.65;0.90;;;3.80;99.90;;;;;;5070855;28;20048;-81
2021/04/23 07:49:21;;;;;;;0.88;0.60;;;3.80;99.90;;;;;;5038301;28;20045;-81
2021/04/23 07:51:49;;;;;;;3.40;1.02;;;3.80;99.90;;;;;;5039234;28;20115;-81
2021/04/23 07:54:15;;;;;;;1.15;0.38;;;3.80;99.90;;;;;;5052173;28;20064;-81
2021/04/23 07:56:42;;;;;;;1.67;0.55;;;3.80;99.90;;;;;;5069869;28;20068;-80
2021/04/23 07:59:08;;;;;;;1.17;0.30;;;3.70;99.90;;;;;;5034433;28;20135;-80
2021/04/23 08:01:35;;;;;;;1.92;0.73;;;3.80;99.90;;;;;;5038450;28;20028;-81
2021/04/23 08:04:03;;;;;;;1.30;0.30;;;3.70;99.90;;;;;;5056330;28;20127;-81
2021/04/23 08:06:29;;;;;;;1.17;0.30;;;3.80;99.90;;;;;;5052321;28;20047;-81
2021/04/23 08:08:56;;;;;;;1.50;0.40;;;3.80;99.90;;;;;;5069359;28;20148;-80
2021/04/23 08:11:23;;;;;;;2.50;0.50;;;3.80;99.90;;;;;;5070853;28;20043;-80
2021/04/23 08:13:50;;;;;;;0.43;0.20;;;3.80;99.90;;;;;;5053151;28;20407;-80
2021/04/23 08:16:17;;;;;;;0.50;0.22;;;3.90;99.90;;;;;;5052882;28;20047;-81
2021/04/23 08:18:45;;;;;;;2.78;0.40;;;3.90;99.90;;;;;;5052795;28;20103;-81
2021/04/23 08:21:11;;;;;;;2.03;1.67;;;3.90;99.90;;;;;;5069574;28;20051;-80
2021/04/23 08:23:38;;;;;;;1.05;0.38;;;3.90;99.90;;;;;;5036826;28;20090;-81
2021/04/23 08:26:05;;;;;;;3.50;1.42;;;4.00;99.90;;;;;;5051014;28;20409;-80
2021/04/23 08:28:32;;;;;;;1.83;0.45;;;4.00;99.90;;;;;;5068551;28;20528;-80
2021/04/23 08:31:00;;;;;;;1.65;0.30;;;4.00;99.90;;;;;;5043139;28;20032;-80
2021/04/23 08:33:26;;;;;;;0.55;0.32;;;4.00;99.90;;;;;;5055893;28;20493;-81
2021/04/23 08:35:54;;;;;;;0.50;0.43;;;4.00;99.90;;;;;;5040109;28;20032;-81
2021/04/23 08:38:24;;;;;;;;;;;4.00;99.90;;;;;;5037711;28;20134;-81
2021/04/23 08:40:56;;;;;;;2.75;0.60;;;4.10;99.90;;;;;;5036404;28;20389;-80
2021/04/23 08:43:25;;;;;;;1.98;0.50;;;4.00;99.90;;;;;;5035101;28;20104;-81
2021/04/23 08:45:52;;;;;;;1.05;0.25;;;4.00;99.90;;;;;;5034226;28;20056;-80
2021/04/23 08:48:21;;;;;;;2.97;0.60;;;4.10;99.90;;;;;;5053215;28;20056;-80
2021/04/23 08:50:48;;;;;;;1.02;0.40;;;4.10;99.90;;;;;;5041686;28;20057;-81
2021/04/23 08:53:19;;;;;;;3.45;0.88;;;4.10;99.90;;;;;;5055852;28;20053;-81
2021/04/23 08:55:46;;;;;;;2.10;0.55;;;4.10;99.90;;;;;;5072937;28;20067;-81
2021/04/23 08:58:13;;;;;;;3.50;0.60;;;4.00;99.90;;;;;;5051962;28;20044;-80
2021/04/23 09:00:41;;;;;;;0.65;0.45;;;4.10;99.90;;;;;;5056121;28;20037;-80
2021/04/23 09:03:09;;;;;;;0.60;0.20;;;4.10;99.90;;;;;;5056771;28;20045;-81
2021/04/23 09:05:37;;;;;;;3.47;0.60;;;4.10;99.90;;;;;;5057246;28;20460;-82
2021/04/23 09:08:08;;;;;;;8.13;1.80;;;4.20;99.90;;;;;;5055147;28;20048;-80
2021/04/23 09:10:37;;;;;;;3.95;0.55;;;4.20;99.90;;;;;;5056438;28;20525;-81
2021/04/23 09:13:08;;;;;;;1.05;0.30;;;4.30;99.90;;;;;;5068980;28;20150;-82
2021/04/23 09:15:35;;;;;;;1.65;0.65;;;4.20;99.90;;;;;;5056210;28;20147;-81
2021/04/23 09:18:08;;;;;;;2.90;0.60;;;4.30;99.90;;;;;;5054189;28;20409;-80
2021/04/23 09:20:37;;;;;;;3.47;0.30;;;4.40;99.90;;;;;;5074256;28;20431;-80
2021/04/23 09:23:10;;;;;;;5.47;1.08;;;4.40;99.90;;;;;;5059203;28;20055;-81
2021/04/23 09:25:51;;;;;;;0.85;0.38;;;4.40;99.90;;;;;;5057443;28;20045;-81
2021/04/23 09:28:37;;;;;;;2.85;0.50;;;4.40;99.90;;;;;;5056316;28;20053;-81
2021/04/23 09:31:27;;;;;;;3.13;0.95;;;4.50;99.90;;;;;;5043374;28;20045;-80
2021/04/23 09:33:58;;;;;;;1.92;0.45;;;4.50;99.90;;;;;;5053013;28;20055;-80
2021/04/23 09:36:32;;;;;;;0.50;0.30;;;4.70;99.90;;;;;;5055318;28;20128;-82
2021/04/23 09:39:07;;;;;;;1.98;0.57;;;4.70;99.90;;;;;;5038986;28;20097;-80
2021/04/23 09:41:35;;;;;;;1.77;0.50;;;4.80;99.90;;;;;;5060075;28;20041;-81
2021/04/23 09:44:01;;;;;;;3.55;0.50;;;4.70;99.90;;;;;;5037721;28;20063;-80
2021/04/23 09:46:33;;;;;;;1.40;0.20;;;4.70;99.90;;;;;;5055755;28;20104;-81
2021/04/23 09:49:17;;;;;;;4.20;0.63;;;4.60;99.90;;;;;;5057371;28;20044;-81
2021/04/23 09:51:44;;;;;;;1.20;0.50;;;4.70;99.90;;;;;;5060959;28;20072;-81
2021/04/23 09:54:23;;;;;;;0.88;0.40;;;4.80;99.90;;;;;;5040288;28;20048;-81
2021/04/23 09:56:52;;;;;;;3.45;0.60;;;4.70;99.90;;;;;;5058401;28;20155;-81
2021/04/23 09:59:27;;;;;;;1.48;0.55;;;4.70;99.90;;;;;;5039498;28;20048;-80
2021/04/23 10:02:03;;;;;;;2.15;0.35;;;4.80;99.90;;;;;;5056570;28;20076;-80
2021/04/23 10:04:35;;;;;;;0.80;0.43;;;4.90;99.90;;;;;;5055361;28;20048;-80
2021/04/23 10:07:08;;;;;;;1.15;0.28;;;4.70;99.90;;;;;;5042440;28;20108;-81
2021/04/23 10:10:09;;;;;;;2.75;0.40;;;4.80;99.90;;;;;;5038637;28;20044;-81
2021/04/23 10:12:42;;;;;;;2.17;0.40;;;4.80;99.90;;;;;;5031771;28;20052;-81
2021/04/23 10:15:26;;;;;;;1.85;0.45;;;4.70;99.90;;;;;;5039935;28;20040;-81
2021/04/23 10:18:06;;;;;;;1.55;0.30;;;4.70;99.90;;;;;;5035596;28;20700;-81
2021/04/23 10:20:36;;;;;;;1.48;0.20;;;4.80;99.90;;;;;;5057156;28;20033;-80
2021/04/23 10:23:04;;;;;;;;;;;4.80;99.90;;;;;;5061799;28;20049;-80
2021/04/23 10:25:32;;;;;;;2.40;0.60;;;4.80;99.90;;;;;;5073449;28;19925;-81
2021/04/23 10:28:00;;;;;;;1.40;0.80;;;4.80;99.90;;;;;;5055585;28;20053;-81
2021/04/23 10:30:30;;;;;;;2.17;1.92;;;4.80;99.90;;;;;;5046095;28;20049;-81
2021/04/23 10:33:13;;;;;;;1.70;0.70;;;4.90;99.90;;;;;;5073993;28;20379;-81
2021/04/23 10:35:42;;;;;;;1.85;0.50;;;4.90;99.90;;;;;;5075880;28;20044;-81
2021/04/23 10:38:12;;;;;;;2.50;0.40;;;5.00;99.90;;;;;;5048960;28;20049;-81
2021/04/23 10:40:41;;;;;;;1.77;0.50;;;5.00;99.90;;;;;;5055333;28;20083;-81
2021/04/23 10:43:17;;;;;;;2.63;0.22;;;5.10;99.90;;;;;;5055626;28;20041;-81
2021/04/23 10:45:59;;;;;;;1.45;0.35;;;5.10;99.90;;;;;;5053524;28;20469;-81
2021/04/23 10:48:37;;;;;;;0.50;0.50;;;5.30;99.90;;;;;;5033854;28;20421;-81
2021/04/23 10:51:08;;;;;;;1.60;0.60;;;5.30;99.90;;;;;;5055811;28;20067;-81
2021/04/23 10:53:46;;;;;;;1.13;0.55;;;5.20;99.90;;;;;;5034261;28;20045;-81
2021/04/23 10:56:28;;;;;;;2.28;0.57;;;5.30;99.90;;;;;;5036303;28;20072;-82
2021/04/23 10:59:07;;;;;;;5.07;0.75;;;5.40;99.90;;;;;;5033193;28;20064;-81
2021/04/23 11:01:39;;;;;;;3.67;0.73;;;5.50;99.90;;;;;;5070266;28;20500;-82
2021/04/23 11:04:12;;;;;;;1.30;0.80;;;5.40;99.90;;;;;;5037133;28;20044;-81
2021/04/23 11:07:03;;;;;;;1.88;0.25;;;5.50;99.90;;;;;;5040926;28;20075;-82
2021/04/23 11:09:30;;;;;;;1.58;0.60;;;5.50;99.90;;;;;;5054529;28;20048;-83
2021/04/23 11:12:06;;;;;;;1.42;0.40;;;5.50;99.90;;;;;;5053742;28;20040;-81
2021/04/23 11:14:35;;;;;;;3.22;0.70;;;5.40;99.90;;;;;;5052746;28;20075;-81
2021/04/23 11:17:17;;;;;;;3.45;0.95;;;5.40;99.90;;;;;;5073181;28;20045;-81
2021/04/23 11:19:49;;;;;;;1.67;0.65;;;5.50;99.90;;;;;;5053957;28;20068;-81
2021/04/23 11:22:22;;;;;;;2.05;0.50;;;5.70;99.90;;;;;;5050726;28;20060;-81
2021/04/23 11:25:27;;;;;;;3.45;0.75;;;5.80;99.90;;;;;;5020262;28;20098;-80
2021/04/23 11:28:00;;;;;;;2.22;0.63;;;5.80;99.90;;;;;;330266;28;10022721;-81
2021/04/23 11:30:28;;;;;;;2.10;0.70;;;5.70;99.90;;;;;;4938143;28;20043;-80
2021/04/23 11:32:56;;;;;;;2.25;0.30;;;5.80;99.90;;;;;;5027978;28;20116;-80
2021/04/23 11:35:25;;;;;;;3.03;0.50;;;6.00;99.90;;;;;;5070231;28;20139;-81
2021/04/23 11:37:58;;;;;;;0.63;0.50;;;6.20;99.90;;;;;;5052682;28;20147;-81
2021/04/23 11:40:29;;;;;;;4.68;0.75;;;6.30;99.90;;;;;;5054775;28;20037;-82
2021/04/23 11:43:02;;;;;;;1.27;0.55;;;6.30;99.90;;;;;;5069837;28;20048;-82
2021/04/23 11:45:33;;;;;;;6.75;1.10;;;6.30;99.90;;;;;;5053030;28;20101;-80
2021/04/23 11:47:59;;;;;;;;;;;6.20;99.90;;;;;;5053960;28;20075;-81
2021/04/23 11:50:46;;;;;;;2.22;0.63;;;6.00;99.90;;;;;;5068880;28;19920;-80
2021/04/23 11:53:14;;;;;;;0.85;0.30;;;5.90;99.90;;;;;;5074684;28;20108;-81
2021/04/23 11:55:43;;;;;;;1.20;0.55;;;6.00;99.90;;;;;;5036872;28;20645;-80
2021/04/23 11:58:13;;;;;;;2.60;0.70;;;6.20;99.90;;;;;;5053885;28;20653;-82
2021/04/23 12:00:45;;;;;;;2.47;0.47;;;6.30;99.90;;;;;;5034265;28;20074;-81
2021/04/23 12:03:14;;;;;;;1.65;0.52;;;6.30;99.90;;;;;;5035456;28;20079;-81
2021/04/23 12:05:48;;;;;;;1.00;0.55;;;6.20;99.90;;;;;;5053588;28;20104;-81
2021/04/23 12:08:16;;;;;;;3.80;0.55;;;6.30;99.90;;;;;;5054831;28;20086;-80
2021/04/23 12:10:50;;;;;;;2.58;0.40;;;6.30;99.90;;;;;;5055899;28;20221;-80
2021/04/23 12:13:21;;;;;;;1.40;0.55;;;6.10;99.90;;;;;;5037620;28;20045;-80
2021/04/23 12:15:58;;;;;;;2.47;0.80;;;6.20;99.90;;;;;;5035845;28;20531;-80
2021/04/23 12:18:26;;;;;;;3.28;0.50;;;6.20;99.90;;;;;;5051111;28;20048;-81
2021/04/23 12:20:55;;;;;;;0.77;0.22;;;6.30;99.90;;;;;;5054494;28;20438;-81
2021/04/23 12:23:31;;;;;;;0.57;0.22;;;6.30;99.90;;;;;;5067240;28;20589;-79
2021/04/23 12:26:06;;;;;;;3.58;0.40;;;6.40;99.90;;;;;;5061193;28;20060;-78
2021/04/23 12:28:37;;;;;;;3.00;0.93;;;6.40;99.90;;;;;;5048599;28;20099;-79
2021/04/23 12:31:15;;;;;;;3.85;0.73;;;6.30;99.90;;;;;;5045954;28;20444;-78
2021/04/23 12:33:47;;;;;;;1.17;0.45;;;6.40;99.90;;;;;;5066690;28;20114;-79
2021/04/23 12:36:24;;;;;;;1.63;0.80;;;6.40;99.90;;;;;;5062811;28;20078;-79
2021/04/23 12:38:54;;;;;;;1.00;0.40;;;6.60;99.90;;;;;;5047263;28;20052;-78
2021/04/23 12:41:28;;;;;;;0.55;0.55;;;6.40;99.90;;;;;;5050696;28;20496;-78
2021/04/23 12:43:57;;;;;;;1.27;0.70;;;6.30;99.90;;;;;;5045506;28;20075;-79
2021/04/23 12:46:26;;;;;;;1.92;1.05;;;6.40;99.90;;;;;;5070225;28;20048;-79
2021/04/23 12:49:06;;;;;;;2.30;0.68;;;6.50;99.90;;;;;;5045552;28;20040;-78
2021/04/23 12:51:47;;;;;;;1.20;0.70;;;6.50;99.90;;;;;;5049364;28;20064;-79
2021/04/23 12:54:15;;;;;;;51.05;17.60;;;6.50;99.90;;;;;;5026677;28;20484;-79
2021/04/23 12:56:52;;;;;;;57.78;24.70;;;6.60;99.90;;;;;;5067827;28;20049;-81
2021/04/23 12:59:38;;;;;;;6.65;2.65;;;6.60;99.90;;;;;;5046061;28;20048;-79
2021/04/23 13:02:13;;;;;;;1.77;0.93;;;6.40;99.90;;;;;;5043990;28;20049;-79
2021/04/23 13:04:43;;;;;;;5.30;1.15;;;6.20;99.90;;;;;;5061574;28;20048;-79
2021/04/23 13:07:13;;;;;;;2.05;0.80;;;6.30;99.90;;;;;;5041480;28;20040;-79
2021/04/23 13:09:40;;;;;;;0.90;0.40;;;6.20;99.90;;;;;;5064280;28;20102;-79
2021/04/23 13:12:17;;;;;;;3.58;1.27;;;6.20;99.90;;;;;;5045888;28;20744;-79
2021/04/23 13:14:44;;;;;;;2.78;1.02;;;6.40;99.90;;;;;;5031846;28;20083;-79